Time;durP1;ratioP1;P1;durP2;ratioP2;P2;SDS_P1;SDS_P2;PMS_P1;PMS_P2;Temp;Humidity;BMP_temperature;BMP_pressure;BME280_temperature;BME280_humidity;BME280_pressure;Samples;Min_cycle;Max_cycle;Signal;HPM_P1;HPM_P2
2021/01/24 00:00:39;;;;;;;18.83;14.35;;;6.00;99.90;;;;;;2078746;28;20101;-78
2021/01/24 00:01:39;;;;;;;17.48;14.02;;;6.00;99.90;;;;;;2079862;28;20025;-78
2021/01/24 00:02:40;;;;;;;16.48;13.52;;;6.00;99.90;;;;;;2079214;28;20028;-77
2021/01/24 00:03:41;;;;;;;19.00;14.27;;;6.00;99.90;;;;;;2070564;28;20025;-76
2021/01/24 00:04:41;;;;;;;16.38;13.23;;;6.00;99.90;;;;;;2070690;28;20017;-75
2021/01/24 00:05:45;;;;;;;16.50;13.73;;;6.00;99.90;;;;;;2079399;28;20041;-73
2021/01/24 00:06:46;;;;;;;19.20;14.02;;;6.00;99.90;;;;;;2078894;28;20025;-76
2021/01/24 00:07:48;;;;;;;19.55;14.93;;;6.00;99.90;;;;;;2079350;28;20106;-75
2021/01/24 00:08:48;;;;;;;16.45;12.60;;;5.90;99.90;;;;;;2078952;28;20254;-75
2021/01/24 00:09:49;;;;;;;18.08;13.07;;;6.00;99.90;;;;;;2079486;28;20178;-75
2021/01/24 00:10:49;;;;;;;18.67;14.75;;;6.00;99.90;;;;;;2079201;28;20037;-77
2021/01/24 00:11:50;;;;;;;20.42;14.10;;;5.90;99.90;;;;;;2079604;28;20032;-77
2021/01/24 00:12:51;;;;;;;22.10;16.58;;;6.00;99.90;;;;;;2079500;28;20083;-74
2021/01/24 00:13:51;;;;;;;21.40;15.90;;;6.00;99.90;;;;;;2079357;28;20393;-75
2021/01/24 00:14:52;;;;;;;27.70;19.85;;;6.00;99.90;;;;;;2070444;28;20030;-74
2021/01/24 00:15:52;;;;;;;27.85;19.20;;;6.00;99.90;;;;;;2070759;28;20026;-76
2021/01/24 00:16:53;;;;;;;34.75;21.95;;;5.90;99.90;;;;;;2078917;28;20064;-76
2021/01/24 00:17:53;;;;;;;34.03;22.38;;;5.90;99.90;;;;;;2079357;28;20075;-77
2021/01/24 00:18:54;;;;;;;25.45;18.30;;;5.90;99.90;;;;;;2070429;28;20030;-75
2021/01/24 00:19:55;;;;;;;24.55;18.52;;;5.90;99.90;;;;;;2062653;28;20026;-75
2021/01/24 00:20:55;;;;;;;26.60;18.80;;;5.90;99.90;;;;;;2070620;28;20032;-75
2021/01/24 00:21:56;;;;;;;27.13;18.55;;;5.90;99.90;;;;;;2079095;28;20116;-76
2021/01/24 00:22:56;;;;;;;21.08;16.80;;;5.90;99.90;;;;;;2078536;28;20029;-75
2021/01/24 00:23:57;;;;;;;21.23;16.02;;;5.90;99.90;;;;;;2079040;28;20025;-75
2021/01/24 00:24:58;;;;;;;19.13;15.35;;;6.00;99.90;;;;;;2070799;28;20152;-76
2021/01/24 00:25:58;;;;;;;19.40;15.00;;;6.00;99.90;;;;;;2070596;28;20022;-75
2021/01/24 00:26:59;;;;;;;19.73;14.57;;;6.00;99.90;;;;;;2078682;28;20022;-76
2021/01/24 00:27:59;;;;;;;18.25;14.68;;;6.00;99.90;;;;;;2078728;28;20473;-74
2021/01/24 00:29:00;;;;;;;19.05;15.35;;;6.00;99.90;;;;;;2079540;28;20025;-76
2021/01/24 00:30:04;;;;;;;20.92;15.88;;;5.90;99.90;;;;;;2079124;28;20029;-76
2021/01/24 00:31:05;;;;;;;18.60;14.13;;;6.00;99.90;;;;;;2079181;28;20040;-75
2021/01/24 00:32:05;;;;;;;22.05;14.93;;;6.00;99.90;;;;;;2079695;28;20056;-76
2021/01/24 00:33:06;;;;;;;20.50;14.80;;;6.00;99.90;;;;;;2079453;28;20033;-75
2021/01/24 00:34:07;;;;;;;15.82;13.20;;;5.90;99.90;;;;;;2079194;28;20029;-75
2021/01/24 00:35:09;;;;;;;16.70;13.98;;;5.90;99.90;;;;;;2078915;28;20045;-78
2021/01/24 00:36:11;;;;;;;14.52;13.02;;;6.00;99.90;;;;;;2070449;28;20030;-77
2021/01/24 00:37:12;;;;;;;20.88;13.80;;;6.00;99.90;;;;;;2070449;28;20726;-77
2021/01/24 00:38:13;;;;;;;17.70;13.05;;;6.00;99.90;;;;;;2069855;28;20124;-77
2021/01/24 00:39:14;;;;;;;17.55;13.02;;;6.00;99.90;;;;;;2070383;28;20034;-76
2021/01/24 00:40:14;;;;;;;17.02;13.35;;;5.90;99.90;;;;;;2079309;28;20037;-75
2021/01/24 00:41:15;;;;;;;20.25;13.73;;;5.90;99.90;;;;;;2079152;28;20025;-76
2021/01/24 00:42:16;;;;;;;16.83;13.18;;;6.00;99.90;;;;;;2079372;28;20029;-76
2021/01/24 00:43:17;;;;;;;16.52;12.85;;;6.00;99.90;;;;;;2070297;28;20053;-75
2021/01/24 00:44:17;;;;;;;15.27;13.05;;;5.90;99.90;;;;;;2070533;28;20026;-75
2021/01/24 00:45:18;;;;;;;16.42;12.23;;;6.00;99.90;;;;;;2079626;28;20130;-76
2021/01/24 00:46:18;;;;;;;16.60;12.05;;;6.00;99.90;;;;;;2079071;28;20033;-74
2021/01/24 00:47:20;;;;;;;14.68;12.85;;;6.00;99.90;;;;;;2078554;28;20671;-76
2021/01/24 00:48:20;;;;;;;19.60;13.63;;;6.00;99.90;;;;;;2078824;28;20057;-75
2021/01/24 00:49:21;;;;;;;16.25;12.75;;;6.00;99.90;;;;;;2078807;28;20106;-75
2021/01/24 00:50:21;;;;;;;17.10;13.40;;;6.00;99.90;;;;;;2079256;28;20365;-76
2021/01/24 00:51:22;;;;;;;14.68;12.20;;;6.00;99.90;;;;;;2070395;28;20034;-75
2021/01/24 00:52:22;;;;;;;15.73;13.00;;;6.00;99.90;;;;;;2070340;28;20329;-75
2021/01/24 00:53:23;;;;;;;17.85;13.52;;;6.00;99.90;;;;;;2070362;28;20041;-77
2021/01/24 00:54:24;;;;;;;18.05;12.63;;;6.00;99.90;;;;;;2070233;28;20046;-76
2021/01/24 00:55:25;;;;;;;16.17;12.73;;;6.00;99.90;;;;;;2079149;28;20037;-76
2021/01/24 00:56:25;;;;;;;16.48;12.38;;;6.00;99.90;;;;;;2079240;28;20794;-76
2021/01/24 00:57:26;;;;;;;14.45;12.25;;;6.00;99.90;;;;;;2078461;28;21072;-75
2021/01/24 00:58:27;;;;;;;13.55;11.95;;;6.00;99.90;;;;;;2078843;28;20036;-76
2021/01/24 00:59:27;;;;;;;14.77;11.57;;;6.00;99.90;;;;;;2078862;28;20401;-76
2021/01/24 01:00:28;;;;;;;13.50;11.18;;;6.00;99.90;;;;;;2079338;28;20052;-75
2021/01/24 01:01:28;;;;;;;14.65;12.13;;;6.00;99.90;;;;;;2078792;28;20072;-75
2021/01/24 01:02:29;;;;;;;14.75;11.55;;;6.00;99.90;;;;;;2079397;28;20021;-76
2021/01/24 01:03:29;;;;;;;15.13;11.27;;;6.00;99.90;;;;;;2078913;28;20470;-74
2021/01/24 01:04:30;;;;;;;17.75;12.52;;;6.00;99.90;;;;;;2070593;28;20026;-76
2021/01/24 01:05:31;;;;;;;19.60;11.60;;;6.00;99.90;;;;;;2070075;28;20026;-75
2021/01/24 01:06:32;;;;;;;16.05;12.38;;;6.00;99.90;;;;;;2079264;28;20021;-76
2021/01/24 01:07:33;;;;;;;14.10;12.00;;;6.00;99.90;;;;;;2078297;28;20075;-75
2021/01/24 01:08:33;;;;;;;15.55;12.30;;;6.00;99.90;;;;;;2078950;28;20075;-76
2021/01/24 01:09:35;;;;;;;14.95;12.20;;;6.00;99.90;;;;;;2078909;28;20084;-76
2021/01/24 01:10:37;;;;;;;17.65;11.35;;;6.00;99.90;;;;;;2079385;28;20025;-75
2021/01/24 01:11:37;;;;;;;16.58;12.68;;;6.00;99.90;;;;;;2070560;28;20029;-76
2021/01/24 01:12:38;;;;;;;18.00;11.80;;;6.00;99.90;;;;;;2070631;28;20045;-75
2021/01/24 01:13:38;;;;;;;13.57;12.18;;;6.00;99.90;;;;;;2078951;28;20516;-74
2021/01/24 01:14:39;;;;;;;14.60;12.00;;;6.00;99.90;;;;;;2079000;28;20039;-75
2021/01/24 01:15:40;;;;;;;13.57;11.52;;;6.00;99.90;;;;;;2079048;28;20032;-75
2021/01/24 01:16:40;;;;;;;13.43;11.32;;;6.00;99.90;;;;;;2078712;28;20052;-75
2021/01/24 01:17:41;;;;;;;14.38;12.73;;;6.00;99.90;;;;;;2077635;28;20026;-75
2021/01/24 01:18:41;;;;;;;16.27;12.65;;;6.00;99.90;;;;;;2078795;28;20024;-76
2021/01/24 01:19:42;;;;;;;13.82;12.02;;;6.00;99.90;;;;;;2070253;28;20014;-76
2021/01/24 01:20:43;;;;;;;16.10;12.23;;;6.00;99.90;;;;;;2070502;28;20470;-75
2021/01/24 01:21:43;;;;;;;16.33;12.10;;;6.00;99.90;;;;;;2078853;28;20029;-75
2021/01/24 01:22:44;;;;;;;13.98;11.60;;;6.00;99.90;;;;;;2079324;28;20052;-74
2021/01/24 01:23:44;;;;;;;15.32;10.75;;;6.00;99.90;;;;;;2078505;28;20411;-75
2021/01/24 01:24:45;;;;;;;13.07;10.52;;;5.90;99.90;;;;;;2079000;28;20017;-75
2021/01/24 01:25:46;;;;;;;12.23;10.63;;;5.90;99.90;;;;;;2078472;28;20021;-74
2021/01/24 01:26:46;;;;;;;9.82;8.40;;;5.90;99.90;;;;;;2078713;28;20029;-76
2021/01/24 01:27:47;;;;;;;13.00;9.88;;;5.80;99.90;;;;;;2079079;28;20098;-77
2021/01/24 01:28:47;;;;;;;10.82;9.30;;;5.80;99.90;;;;;;2078587;28;20104;-74
2021/01/24 01:29:48;;;;;;;9.32;8.40;;;5.80;99.90;;;;;;2078856;28;20029;-74
2021/01/24 01:30:49;;;;;;;10.48;9.18;;;5.80;99.90;;;;;;2079110;28;20033;-75
2021/01/24 01:31:49;;;;;;;10.13;9.02;;;5.80;99.90;;;;;;2079547;28;20472;-76
2021/01/24 01:32:50;;;;;;;10.65;9.60;;;5.70;99.90;;;;;;2079268;28;20543;-75
2021/01/24 01:33:51;;;;;;;11.07;9.07;;;5.70;99.90;;;;;;2078640;28;20025;-75
2021/01/24 01:34:51;;;;;;;9.55;8.60;;;5.70;99.90;;;;;;2078965;28;20029;-75
2021/01/24 01:35:52;;;;;;;9.50;8.55;;;5.70;99.90;;;;;;2069684;28;20030;-76
2021/01/24 01:36:52;;;;;;;9.75;8.75;;;5.70;99.90;;;;;;2069866;28;20022;-77
2021/01/24 01:37:53;;;;;;;11.55;9.75;;;5.70;99.90;;;;;;2070369;28;20560;-74
2021/01/24 01:38:54;;;;;;;9.88;8.77;;;5.70;99.90;;;;;;2069814;28;20033;-77
2021/01/24 01:39:54;;;;;;;9.65;8.65;;;5.70;99.90;;;;;;2069313;28;20057;-75
2021/01/24 01:40:55;;;;;;;10.13;8.70;;;5.70;99.90;;;;;;2068284;28;20141;-75
2021/01/24 01:41:55;;;;;;;12.48;9.48;;;5.70;99.90;;;;;;2078650;28;20493;-76
2021/01/24 01:42:57;;;;;;;9.82;8.82;;;5.70;99.90;;;;;;2076892;28;20026;-76
2021/01/24 01:43:58;;;;;;;9.18;8.18;;;5.60;99.90;;;;;;2078291;28;20643;-75
2021/01/24 01:44:59;;;;;;;8.77;7.90;;;5.70;99.90;;;;;;2078815;28;20056;-75
2021/01/24 01:46:00;;;;;;;9.82;8.82;;;5.60;99.90;;;;;;2079067;28;20788;-75
2021/01/24 01:47:00;;;;;;;10.20;8.10;;;5.70;99.90;;;;;;2078146;28;20056;-75
2021/01/24 01:48:01;;;;;;;8.57;7.70;;;5.60;99.90;;;;;;2078240;28;20033;-75
2021/01/24 01:49:02;;;;;;;8.10;7.30;;;5.60;99.90;;;;;;2078398;28;20033;-76
2021/01/24 01:50:03;;;;;;;7.82;7.13;;;5.60;99.90;;;;;;2079132;28;20025;-75
2021/01/24 01:51:05;;;;;;;8.48;7.65;;;5.60;99.90;;;;;;2071997;28;20026;-76
2021/01/24 01:52:05;;;;;;;8.82;7.93;;;5.50;99.90;;;;;;2070476;28;20026;-75
2021/01/24 01:53:06;;;;;;;7.70;6.70;;;5.50;99.90;;;;;;2079847;28;20034;-75
2021/01/24 01:54:06;;;;;;;7.07;6.38;;;5.50;99.90;;;;;;2079716;28;20041;-76
2021/01/24 01:55:08;;;;;;;8.27;7.47;;;5.40;99.90;;;;;;2071587;28;20482;-76
2021/01/24 01:56:08;;;;;;;7.95;6.65;;;5.40;99.90;;;;;;2063510;28;20026;-75
2021/01/24 01:57:09;;;;;;;7.63;6.82;;;5.30;99.90;;;;;;2068986;28;20126;-76
2021/01/24 01:58:09;;;;;;;7.88;7.07;;;5.30;99.90;;;;;;2077706;28;20033;-77
2021/01/24 01:59:10;;;;;;;7.35;6.63;;;5.30;99.90;;;;;;2079869;28;20021;-76
2021/01/24 02:00:11;;;;;;;7.28;6.55;;;5.30;99.90;;;;;;2080817;28;20448;-76
2021/01/24 02:01:53;;;;;;;7.28;6.57;;;5.30;99.90;;;;;;2080298;28;20021;-75
2021/01/24 02:03:18;;;;;;;7.55;6.75;;;5.20;99.90;;;;;;2075957;28;20032;-75
2021/01/24 02:04:21;;;;;;;6.55;5.95;;;5.20;99.90;;;;;;2080282;28;20025;-75
2021/01/24 02:05:37;;;;;;;6.63;6.03;;;5.20;99.90;;;;;;2080110;28;20021;-78
2021/01/24 02:07:11;;;;;;;6.85;6.25;;;5.20;99.90;;;;;;2073816;28;20025;-76
2021/01/24 02:08:32;;;;;;;5.95;5.40;;;5.10;99.90;;;;;;2081944;28;20021;-76
2021/01/24 02:09:45;;;;;;;6.00;5.40;;;5.10;99.90;;;;;;2072598;28;20413;-75
2021/01/24 02:10:56;;;;;;;4.78;4.38;;;5.10;99.90;;;;;;2079884;28;20040;-74
2021/01/24 02:12:08;;;;;;;4.90;4.50;;;5.10;99.90;;;;;;2080009;28;20383;-74
2021/01/24 02:13:25;;;;;;;5.28;4.65;;;5.10;99.90;;;;;;2073849;28;20034;-77
2021/01/24 02:14:31;;;;;;;4.53;4.13;;;5.00;99.90;;;;;;2079433;28;20047;-75
2021/01/24 02:15:33;;;;;;;4.95;4.43;;;5.00;99.90;;;;;;2071665;28;20026;-76
2021/01/24 02:16:37;;;;;;;4.07;3.78;;;5.00;99.90;;;;;;2080207;28;20025;-76
2021/01/24 02:17:50;;;;;;;3.95;3.63;;;5.00;99.90;;;;;;2070950;28;20026;-77
2021/01/24 02:18:52;;;;;;;4.32;3.60;;;5.00;99.90;;;;;;2064714;28;20025;-75
2021/01/24 02:20:27;;;;;;;7.35;4.20;;;5.00;99.90;;;;;;2071872;28;20021;-76
2021/01/24 02:21:33;;;;;;;3.47;3.17;;;4.90;99.90;;;;;;2054637;28;20043;-77
2021/01/24 02:22:39;;;;;;;4.13;3.83;;;4.90;99.90;;;;;;2061671;28;20118;-76
2021/01/24 02:23:41;;;;;;;3.95;3.65;;;4.90;99.90;;;;;;2070943;28;20025;-76
2021/01/24 02:24:51;;;;;;;4.03;3.70;;;4.90;99.90;;;;;;2080427;28;20067;-76
2021/01/24 02:26:04;;;;;;;4.60;4.20;;;4.90;99.90;;;;;;2080309;28;20025;-76
2021/01/24 02:27:33;;;;;;;3.67;3.38;;;4.90;99.90;;;;;;2079851;28;20427;-77
2021/01/24 02:28:53;;;;;;;3.58;3.28;;;4.90;99.90;;;;;;2080051;28;20376;-75
2021/01/24 02:30:14;;;;;;;3.75;3.45;;;4.80;99.90;;;;;;2080232;28;20032;-77
2021/01/24 02:31:16;;;;;;;4.07;3.67;;;4.80;99.90;;;;;;2080151;28;20697;-77
2021/01/24 02:32:19;;;;;;;4.15;3.78;;;4.80;99.90;;;;;;2080475;28;20037;-75
2021/01/24 02:33:25;;;;;;;4.43;4.03;;;4.80;99.90;;;;;;2080086;28;20427;-77
2021/01/24 02:34:30;;;;;;;3.88;3.50;;;4.80;99.90;;;;;;2070713;28;20428;-76
2021/01/24 02:35:33;;;;;;;5.57;4.13;;;4.80;99.90;;;;;;2071782;28;20026;-76
2021/01/24 02:36:35;;;;;;;3.58;3.17;;;4.80;99.90;;;;;;2071242;28;20017;-75
2021/01/24 02:37:37;;;;;;;3.92;3.63;;;4.80;99.90;;;;;;2070898;28;20192;-78
2021/01/24 02:38:39;;;;;;;3.60;3.30;;;4.80;99.90;;;;;;2079413;28;20044;-76
2021/01/24 02:39:42;;;;;;;3.75;3.13;;;4.80;99.90;;;;;;2079298;28;20025;-76
2021/01/24 02:40:42;;;;;;;2.90;2.70;;;4.80;99.90;;;;;;2071618;28;20112;-77
2021/01/24 02:41:43;;;;;;;2.75;2.55;;;4.80;99.90;;;;;;2071763;28;20022;-76
2021/01/24 02:42:45;;;;;;;2.47;2.28;;;4.80;99.90;;;;;;2080472;28;20013;-77
2021/01/24 02:43:48;;;;;;;4.18;2.78;;;4.80;99.90;;;;;;2079825;28;20053;-76
2021/01/24 02:44:49;;;;;;;2.85;2.65;;;4.80;99.90;;;;;;2071207;28;20029;-77
2021/01/24 02:45:51;;;;;;;2.90;2.70;;;4.80;99.90;;;;;;2071003;28;20026;-76
2021/01/24 02:46:54;;;;;;;3.00;2.70;;;4.80;99.90;;;;;;2071421;28;20025;-76
2021/01/24 02:47:54;;;;;;;3.00;2.80;;;4.80;99.90;;;;;;2080055;28;20048;-77
2021/01/24 02:48:55;;;;;;;2.72;2.53;;;4.80;99.90;;;;;;2079795;28;20028;-77
2021/01/24 02:49:57;;;;;;;3.75;3.35;;;4.80;99.90;;;;;;2079772;28;20408;-75
2021/01/24 02:50:58;;;;;;;3.25;3.00;;;4.80;99.90;;;;;;2080163;28;20026;-75
2021/01/24 02:52:00;;;;;;;3.50;2.83;;;4.80;99.90;;;;;;2080101;28;20102;-76
2021/01/24 02:53:02;;;;;;;3.05;2.85;;;4.80;99.90;;;;;;2080101;28;20029;-75
2021/01/24 02:54:04;;;;;;;3.88;3.25;;;4.80;99.90;;;;;;2071255;28;20033;-76
2021/01/24 02:55:05;;;;;;;2.97;2.78;;;4.80;99.90;;;;;;2071576;28;20540;-76
2021/01/24 02:56:07;;;;;;;3.60;3.30;;;4.80;99.90;;;;;;2079974;28;20400;-75
2021/01/24 02:57:09;;;;;;;4.93;3.42;;;4.80;99.90;;;;;;2079693;28;20428;-75
2021/01/24 02:58:10;;;;;;;2.88;2.63;;;4.80;99.90;;;;;;2079810;28;20028;-77
2021/01/24 02:59:11;;;;;;;3.63;3.30;;;4.80;99.90;;;;;;2079744;28;20024;-76
2021/01/24 03:00:12;;;;;;;3.80;3.50;;;4.80;99.90;;;;;;2079760;28;20025;-76
2021/01/24 03:01:13;;;;;;;3.30;3.00;;;4.80;99.90;;;;;;2081403;28;20068;-76
2021/01/24 03:02:14;;;;;;;3.70;2.83;;;4.90;99.90;;;;;;2072619;28;20709;-76
2021/01/24 03:03:14;;;;;;;3.78;3.13;;;4.80;99.90;;;;;;2071874;28;20109;-77
2021/01/24 03:04:15;;;;;;;3.30;3.00;;;4.80;99.90;;;;;;2064064;28;20067;-76
2021/01/24 03:05:16;;;;;;;3.78;3.40;;;4.90;99.90;;;;;;2072476;28;20037;-76
2021/01/24 03:06:17;;;;;;;3.53;3.22;;;4.90;99.90;;;;;;2081418;28;20022;-76
2021/01/24 03:07:18;;;;;;;3.60;3.30;;;4.90;99.90;;;;;;2081071;28;20075;-75
2021/01/24 03:08:19;;;;;;;3.78;3.10;;;4.90;99.90;;;;;;2080952;28;20029;-77
2021/01/24 03:09:20;;;;;;;3.83;3.15;;;4.90;99.90;;;;;;2081093;28;20036;-77
2021/01/24 03:10:21;;;;;;;3.80;3.50;;;4.90;99.90;;;;;;2081479;28;20033;-76
2021/01/24 03:11:23;;;;;;;3.75;3.33;;;4.90;99.90;;;;;;2081047;28;20034;-76
2021/01/24 03:12:31;;;;;;;3.88;3.08;;;4.90;99.90;;;;;;2081540;28;20022;-77
2021/01/24 03:13:59;;;;;;;3.42;3.00;;;4.90;99.90;;;;;;2080818;28;20014;-76
2021/01/24 03:15:02;;;;;;;3.13;2.83;;;4.90;99.90;;;;;;2081238;28;20610;-77
2021/01/24 03:16:03;;;;;;;3.75;3.45;;;4.90;99.90;;;;;;2081374;28;20037;-76
2021/01/24 03:17:04;;;;;;;3.13;2.92;;;4.90;99.90;;;;;;2080887;28;20075;-76
2021/01/24 03:18:08;;;;;;;5.13;3.28;;;4.90;99.90;;;;;;2080731;28;20025;-76
2021/01/24 03:19:10;;;;;;;3.50;3.20;;;4.90;99.90;;;;;;2081365;28;20377;-77
2021/01/24 03:20:14;;;;;;;3.33;3.03;;;4.90;99.90;;;;;;2081139;28;20029;-78
2021/01/24 03:21:16;;;;;;;3.47;3.17;;;4.90;99.90;;;;;;2080852;28;20038;-76
2021/01/24 03:22:18;;;;;;;3.60;3.28;;;4.90;99.90;;;;;;2072584;28;20113;-78
2021/01/24 03:23:21;;;;;;;3.33;3.10;;;4.90;99.90;;;;;;2072108;28;20029;-78
2021/01/24 03:24:23;;;;;;;3.38;3.08;;;4.90;99.90;;;;;;2072363;28;20075;-77
2021/01/24 03:25:24;;;;;;;4.25;3.22;;;4.90;99.90;;;;;;2072449;28;20022;-76
2021/01/24 03:26:25;;;;;;;3.88;3.58;;;4.90;99.90;;;;;;2081267;28;20040;-79
2021/01/24 03:27:26;;;;;;;3.75;3.45;;;4.90;99.90;;;;;;2080629;28;20073;-78
2021/01/24 03:28:27;;;;;;;3.20;2.90;;;4.90;99.90;;;;;;2080795;28;20041;-76
2021/01/24 03:29:28;;;;;;;3.53;3.22;;;5.00;99.90;;;;;;2071763;28;20113;-77
2021/01/24 03:30:29;;;;;;;3.10;2.90;;;5.00;99.90;;;;;;2072443;28;20033;-78
2021/01/24 03:31:31;;;;;;;3.90;3.50;;;5.00;99.90;;;;;;2067503;28;20099;-76
2021/01/24 03:32:32;;;;;;;3.88;3.47;;;5.00;99.90;;;;;;2072667;28;20105;-76
2021/01/24 03:33:34;;;;;;;3.20;3.00;;;5.00;99.90;;;;;;2081067;28;20026;-78
2021/01/24 03:34:35;;;;;;;3.50;3.20;;;5.00;99.90;;;;;;2080965;28;20025;-75
2021/01/24 03:35:36;;;;;;;3.83;3.42;;;4.90;99.90;;;;;;2080952;28;20021;-76
2021/01/24 03:36:36;;;;;;;3.47;3.20;;;5.00;99.90;;;;;;2081045;28;20025;-77
2021/01/24 03:37:37;;;;;;;3.78;3.47;;;5.00;99.90;;;;;;2071671;28;20026;-76
2021/01/24 03:38:38;;;;;;;3.80;3.50;;;5.00;99.90;;;;;;2071735;28;20079;-75
2021/01/24 03:39:38;;;;;;;3.58;3.28;;;5.00;99.90;;;;;;2072101;28;20068;-78
2021/01/24 03:40:39;;;;;;;3.80;3.50;;;4.90;99.90;;;;;;2072369;28;20120;-76
2021/01/24 03:41:39;;;;;;;3.60;3.30;;;5.00;99.90;;;;;;2081038;28;20024;-76
2021/01/24 03:42:40;;;;;;;4.57;4.00;;;5.00;99.90;;;;;;2081098;28;20045;-78
2021/01/24 03:43:40;;;;;;;6.13;4.63;;;4.90;99.90;;;;;;2080890;28;20025;-76
2021/01/24 03:44:41;;;;;;;6.55;5.55;;;4.90;99.90;;;;;;2080906;28;20025;-75
2021/01/24 03:45:41;;;;;;;9.38;8.48;;;4.90;99.90;;;;;;2080546;28;20021;-77
2021/01/24 03:46:42;;;;;;;10.38;8.68;;;4.90;99.90;;;;;;2071482;28;20018;-76
2021/01/24 03:47:43;;;;;;;10.82;9.68;;;4.90;99.90;;;;;;2071447;28;20026;-77
2021/01/24 03:48:43;;;;;;;13.18;10.88;;;4.90;99.90;;;;;;2080095;28;20105;-75
2021/01/24 03:49:44;;;;;;;13.75;11.93;;;4.90;99.90;;;;;;2071853;28;20017;-75
2021/01/24 03:50:44;;;;;;;13.00;11.73;;;4.90;99.90;;;;;;2072301;28;20026;-75
2021/01/24 03:51:45;;;;;;;13.23;11.88;;;4.90;99.90;;;;;;2081234;28;20021;-75
2021/01/24 03:52:46;;;;;;;13.23;11.82;;;4.80;99.90;;;;;;2081032;28;20060;-76
2021/01/24 03:53:46;;;;;;;16.15;13.43;;;4.80;99.90;;;;;;2080412;28;20495;-76
2021/01/24 03:54:47;;;;;;;16.27;14.00;;;4.80;99.90;;;;;;2080854;28;20022;-78
2021/01/24 03:55:47;;;;;;;13.50;12.10;;;4.80;99.90;;;;;;2080916;28;20080;-76
2021/01/24 03:56:48;;;;;;;14.80;13.30;;;4.80;99.90;;;;;;2080439;28;20103;-77
2021/01/24 03:57:48;;;;;;;16.08;13.25;;;4.80;99.90;;;;;;2072089;28;20108;-75
2021/01/24 03:58:49;;;;;;;15.77;13.63;;;4.80;99.90;;;;;;2071723;28;20028;-76
2021/01/24 03:59:51;;;;;;;14.90;13.30;;;4.80;99.90;;;;;;2080594;28;20623;-77
2021/01/24 04:00:52;;;;;;;16.30;14.60;;;4.80;99.90;;;;;;2080880;28;20033;-76
2021/01/24 04:01:52;;;;;;;16.90;15.00;;;4.80;99.90;;;;;;2079944;28;20404;-78
2021/01/24 04:02:53;;;;;;;17.55;14.90;;;4.80;99.90;;;;;;2080420;28;20018;-76
2021/01/24 04:03:53;;;;;;;15.35;13.77;;;4.80;99.90;;;;;;2079719;28;20538;-78
2021/01/24 04:04:54;;;;;;;15.95;14.18;;;4.80;99.90;;;;;;2079889;28;20057;-80
2021/01/24 04:05:55;;;;;;;16.42;14.73;;;4.80;99.90;;;;;;2079531;28;20436;-78
2021/01/24 04:06:55;;;;;;;16.40;13.70;;;4.80;99.90;;;;;;2079400;28;20044;-76
2021/01/24 04:07:56;;;;;;;14.60;13.07;;;4.80;99.90;;;;;;2079631;28;20431;-76
2021/01/24 04:08:56;;;;;;;15.40;13.70;;;4.80;99.90;;;;;;2070875;28;20026;-76
2021/01/24 04:09:57;;;;;;;15.57;13.98;;;4.80;99.90;;;;;;2070959;28;20034;-77
2021/01/24 04:10:58;;;;;;;15.95;13.82;;;4.80;99.90;;;;;;2071163;28;20030;-76
2021/01/24 04:11:58;;;;;;;15.65;14.00;;;4.80;99.90;;;;;;2071103;28;20033;-77
2021/01/24 04:12:59;;;;;;;17.00;15.20;;;4.80;99.90;;;;;;2063430;28;20071;-77
2021/01/24 04:13:59;;;;;;;16.48;14.75;;;4.70;99.90;;;;;;2070665;28;20026;-78
2021/01/24 04:15:00;;;;;;;17.42;15.38;;;4.70;99.90;;;;;;2079323;28;20071;-77
2021/01/24 04:16:01;;;;;;;17.77;15.82;;;4.70;99.90;;;;;;2079031;28;20100;-77
2021/01/24 04:17:03;;;;;;;17.00;15.20;;;4.70;99.90;;;;;;2079629;28;20032;-78
2021/01/24 04:18:04;;;;;;;17.42;15.48;;;4.60;99.90;;;;;;2079139;28;20025;-77
2021/01/24 04:19:04;;;;;;;17.08;15.32;;;4.60;99.90;;;;;;2080094;28;20024;-78
2021/01/24 04:20:06;;;;;;;15.32;13.73;;;4.60;99.90;;;;;;2079479;28;20493;-78
2021/01/24 04:21:06;;;;;;;15.65;14.05;;;4.60;99.90;;;;;;2080166;28;20026;-77
2021/01/24 04:22:08;;;;;;;17.38;15.57;;;4.60;99.90;;;;;;2079497;28;20387;-77
2021/01/24 04:23:08;;;;;;;15.68;13.68;;;4.50;99.90;;;;;;2079883;28;20120;-77
2021/01/24 04:24:09;;;;;;;13.35;11.85;;;4.50;99.90;;;;;;2079721;28;20021;-77
2021/01/24 04:25:12;;;;;;;16.90;14.55;;;4.50;99.90;;;;;;2079649;28;20021;-76
2021/01/24 04:26:12;;;;;;;17.55;14.82;;;4.50;99.90;;;;;;2079343;28;20025;-77
2021/01/24 04:27:13;;;;;;;16.65;14.98;;;4.50;99.90;;;;;;2079339;28;20033;-78
2021/01/24 04:28:14;;;;;;;17.08;14.95;;;4.50;99.90;;;;;;2078811;28;20495;-77
2021/01/24 04:29:14;;;;;;;16.08;14.38;;;4.50;99.90;;;;;;2079139;28;20064;-76
2021/01/24 04:30:15;;;;;;;16.88;15.07;;;4.50;99.90;;;;;;2079091;28;20121;-76
2021/01/24 04:31:16;;;;;;;14.93;13.43;;;4.50;99.90;;;;;;2079673;28;20048;-76
2021/01/24 04:32:17;;;;;;;17.02;14.75;;;4.50;99.90;;;;;;2078893;28;20041;-76
2021/01/24 04:33:18;;;;;;;18.60;14.38;;;4.50;99.90;;;;;;2079279;28;20383;-78
2021/01/24 04:34:18;;;;;;;15.70;14.20;;;4.50;99.90;;;;;;2079035;28;20104;-78
2021/01/24 04:35:19;;;;;;;13.10;11.82;;;4.40;99.90;;;;;;2079076;28;20511;-76
2021/01/24 04:36:19;;;;;;;15.35;13.75;;;4.40;99.90;;;;;;2079026;28;20021;-77
2021/01/24 04:37:20;;;;;;;15.18;13.57;;;4.40;99.90;;;;;;2070041;28;20026;-77
2021/01/24 04:38:21;;;;;;;15.60;13.73;;;4.40;99.90;;;;;;2061955;28;20120;-78
2021/01/24 04:39:21;;;;;;;15.88;14.27;;;4.40;99.90;;;;;;2062556;28;20030;-78
2021/01/24 04:40:22;;;;;;;15.60;14.18;;;4.30;99.90;;;;;;2070186;28;20025;-76
2021/01/24 04:41:24;;;;;;;15.80;14.18;;;4.30;99.90;;;;;;2079162;28;20035;-75
2021/01/24 04:42:24;;;;;;;15.32;13.75;;;4.40;99.90;;;;;;2079211;28;20025;-75
2021/01/24 04:43:26;;;;;;;15.77;14.18;;;4.30;99.90;;;;;;2079492;28;20027;-75
2021/01/24 04:44:27;;;;;;;15.90;14.30;;;4.30;99.90;;;;;;2070244;28;20080;-75
2021/01/24 04:45:27;;;;;;;16.60;14.77;;;4.30;99.90;;;;;;2070344;28;20109;-76
2021/01/24 04:46:28;;;;;;;15.68;14.10;;;4.40;99.90;;;;;;2070799;28;20048;-76
2021/01/24 04:47:30;;;;;;;14.98;13.43;;;4.40;99.90;;;;;;2078380;28;20021;-77
2021/01/24 04:48:30;;;;;;;15.90;14.40;;;4.40;99.90;;;;;;2069859;28;20030;-76
2021/01/24 04:49:32;;;;;;;15.00;13.63;;;4.40;99.90;;;;;;2070007;28;20032;-76
2021/01/24 04:50:34;;;;;;;15.48;13.88;;;4.30;99.90;;;;;;2071952;28;20061;-75
2021/01/24 04:51:35;;;;;;;15.48;13.98;;;4.40;99.90;;;;;;2079350;28;20028;-76
2021/01/24 04:52:36;;;;;;;14.60;13.20;;;4.40;99.90;;;;;;2070667;28;20405;-77
2021/01/24 04:53:38;;;;;;;13.60;12.32;;;4.40;99.90;;;;;;2070275;28;20030;-75
2021/01/24 04:54:41;;;;;;;12.40;11.30;;;4.30;99.90;;;;;;2079104;28;20032;-76
2021/01/24 04:55:43;;;;;;;12.85;11.65;;;4.30;99.90;;;;;;2078608;28;20129;-77
2021/01/24 04:56:43;;;;;;;12.40;11.13;;;4.30;99.90;;;;;;2070203;28;20516;-78
2021/01/24 04:57:46;;;;;;;12.25;11.05;;;4.20;99.90;;;;;;2070325;28;20029;-77
2021/01/24 04:58:48;;;;;;;11.70;10.70;;;4.20;99.90;;;;;;2078851;28;20014;-77
2021/01/24 04:59:48;;;;;;;11.60;10.60;;;4.20;99.90;;;;;;2079129;28;20021;-77
2021/01/24 05:00:49;;;;;;;12.45;11.35;;;4.20;99.90;;;;;;2079086;28;20423;-78
2021/01/24 05:01:50;;;;;;;11.07;10.05;;;4.20;99.90;;;;;;2079109;28;20017;-78
2021/01/24 05:02:51;;;;;;;11.52;10.30;;;4.10;99.90;;;;;;2070379;28;20401;-76
2021/01/24 05:03:51;;;;;;;10.25;9.35;;;4.10;99.90;;;;;;2070131;28;20110;-76
2021/01/24 05:04:52;;;;;;;10.70;9.73;;;4.10;99.90;;;;;;2079150;28;20026;-78
2021/01/24 05:05:53;;;;;;;9.60;8.73;;;4.10;99.90;;;;;;2078717;28;20473;-77
2021/01/24 05:06:53;;;;;;;9.40;8.60;;;4.00;99.90;;;;;;2078533;28;20104;-76
2021/01/24 05:08:00;;;;;;;8.55;7.85;;;4.00;99.90;;;;;;2078745;28;20063;-77
2021/01/24 05:09:01;;;;;;;9.70;8.90;;;4.00;99.90;;;;;;2070355;28;20053;-75
2021/01/24 05:10:02;;;;;;;8.65;7.95;;;4.00;99.90;;;;;;2070309;28;20030;-76
2021/01/24 05:11:07;;;;;;;8.93;8.23;;;4.00;99.90;;;;;;2070412;28;20025;-76
2021/01/24 05:12:08;;;;;;;8.05;7.35;;;4.00;99.90;;;;;;2078707;28;20077;-75
2021/01/24 05:13:09;;;;;;;8.27;7.57;;;4.00;99.90;;;;;;2078298;28;20037;-77
2021/01/24 05:14:14;;;;;;;8.63;7.85;;;4.00;99.90;;;;;;2078808;28;20025;-78
2021/01/24 05:15:15;;;;;;;8.32;7.63;;;4.00;99.90;;;;;;2078934;28;20057;-76
2021/01/24 05:16:19;;;;;;;7.72;7.13;;;4.00;99.90;;;;;;2077806;28;20025;-76
2021/01/24 05:17:20;;;;;;;7.30;6.70;;;4.00;99.90;;;;;;2077955;28;20025;-78
2021/01/24 05:18:21;;;;;;;7.97;7.28;;;3.90;99.90;;;;;;2078384;28;20045;-77
2021/01/24 05:19:23;;;;;;;8.20;7.50;;;3.90;99.90;;;;;;2079166;28;20205;-76
2021/01/24 05:20:25;;;;;;;8.00;7.30;;;4.00;99.90;;;;;;2078130;28;20021;-76
2021/01/24 05:21:27;;;;;;;7.55;6.95;;;4.00;99.90;;;;;;2079121;28;20037;-77
2021/01/24 05:22:28;;;;;;;7.80;7.13;;;3.90;99.90;;;;;;2079159;28;20022;-77
2021/01/24 05:23:29;;;;;;;7.28;6.68;;;3.90;99.90;;;;;;2079001;28;20022;-76